Flin Flon Airport
CYFO : rendu visible

Aérodrome :











RETROUVEZ-NOUS SUR...

 
LOGIN :

S'inscrire | Disclaimer

   EN    FR    IT 

 









Légende :    VFR   VFR Marginal   IFR   IFR Intensif   IFR Très Intensif
Visi : 
Plafond : 
>= 8 km
>= 3000ft
5 à 8 km
1000 à 3000 ft
1500m à 5 km
500 à 1000 ft
800 à 1500m
200 à 500 ft
< 800m
< 200 ft
Symboles :   Orages  Brouillard  Fortes neiges  Fortes précipitations  Vent > 20 kt






- Altitude de l'aérodrome : 997 ft
- Code IATA : YFO


CYFO - Flin Flon

DERNIER METAR :
  • 211600Z 20010KT 15SM -SN BKN008 OVC027 M13/M14 A3004 RMK SC6SC2 SLP203

METARs EXPIRÉS :
  • 211536Z 20008KT 12SM -SN OVC007 M14/M15 A3005 RMK SC8 SLP206
  • 211500Z 19008KT 15SM OVC007 M14/M16 A3005 RMK SC8 SLP209
  • 211431Z 20010KT 15SM IC OVC008 M15/M17 A3006 RMK SC8 SLP212
  • 211424Z 18009KT 15SM IC BKN010 BKN180 M15/M16 A3006 RMK SC5AC2 SLP213
  • 211400Z 20009KT 15SM IC FEW180 M16/M18 A3007 RMK AC1 AC TR SLP215

TAF N/A



MET'MAP, la Météo Aéronautique d'un coup d'oeil ! - Copyright ORBIFLY Décembre 2007 - Disclaimer

ORBIFLY MET'MAP TEAM :

Programmation & Développement : Alexandra Zaïnal
Conception & Développement : Baudouin d'Aumeries
Co-Programmation & Développement : Marc-Olivier Méhu
Soutien technique & logistique : Manuel Goepfert

Contact : metmap@orbifly.com




SOURCES & CREDITS :

   NOAA       Earth
Advisory